sensor_id;sensor_type;location;lat;lon;timestamp;temperature;humidity
47616;DHT22;69146;52.266;7.000;2024-02-14T00:01:17;7.10;99.90
47616;DHT22;69146;52.266;7.000;2024-02-14T00:04:03;7.10;99.90
47616;DHT22;69146;52.266;7.000;2024-02-14T00:06:47;7.00;99.90
47616;DHT22;69146;52.266;7.000;2024-02-14T00:09:32;7.00;99.90
47616;DHT22;69146;52.266;7.000;2024-02-14T00:12:16;7.00;99.90
47616;DHT22;69146;52.266;7.000;2024-02-14T00:15:02;7.00;99.90
47616;DHT22;69146;52.266;7.000;2024-02-14T00:17:47;6.90;99.90
47616;DHT22;69146;52.266;7.000;2024-02-14T00:20:32;6.90;99.90
47616;DHT22;69146;52.266;7.000;2024-02-14T00:23:17;6.90;99.90
47616;DHT22;69146;52.266;7.000;2024-02-14T00:26:01;7.00;99.90
47616;DHT22;69146;52.266;7.000;2024-02-14T00:28:46;7.00;99.90
47616;DHT22;69146;52.266;7.000;2024-02-14T00:31:32;7.00;99.90
47616;DHT22;69146;52.266;7.000;2024-02-14T00:34:17;7.00;99.90
47616;DHT22;69146;52.266;7.000;2024-02-14T00:37:02;7.00;99.90
47616;DHT22;69146;52.266;7.000;2024-02-14T00:39:46;7.00;99.90
47616;DHT22;69146;52.266;7.000;2024-02-14T00:42:33;7.00;99.90
47616;DHT22;69146;52.266;7.000;2024-02-14T00:45:17;7.00;99.90
47616;DHT22;69146;52.266;7.000;2024-02-14T00:48:03;7.00;99.90
47616;DHT22;69146;52.266;7.000;2024-02-14T00:50:48;7.00;99.90
47616;DHT22;69146;52.266;7.000;2024-02-14T00:53:32;7.00;99.90
47616;DHT22;69146;52.266;7.000;2024-02-14T00:56:17;7.00;99.90
47616;DHT22;69146;52.266;7.000;2024-02-14T00:59:02;7.00;99.90
47616;DHT22;69146;52.266;7.000;2024-02-14T01:01:46;7.00;99.90
47616;DHT22;69146;52.266;7.000;2024-02-14T01:04:32;7.10;99.90
47616;DHT22;69146;52.266;7.000;2024-02-14T01:07:16;7.00;99.90
47616;DHT22;69146;52.266;7.000;2024-02-14T01:10:01;7.10;99.90
47616;DHT22;69146;52.266;7.000;2024-02-14T01:12:46;7.10;99.90
47616;DHT22;69146;52.266;7.000;2024-02-14T01:15:30;7.10;99.90
47616;DHT22;69146;52.266;7.000;2024-02-14T01:18:14;7.10;99.90
47616;DHT22;69146;52.266;7.000;2024-02-14T01:21:00;7.10;99.90
47616;DHT22;69146;52.266;7.000;2024-02-14T01:23:44;7.10;99.90
47616;DHT22;69146;52.266;7.000;2024-02-14T01:26:29;7.10;99.90
47616;DHT22;69146;52.266;7.000;2024-02-14T01:29:13;7.10;99.90
47616;DHT22;69146;52.266;7.000;2024-02-14T01:31:58;7.10;99.90
47616;DHT22;69146;52.266;7.000;2024-02-14T01:34:42;7.20;99.90
47616;DHT22;69146;52.266;7.000;2024-02-14T01:37:29;7.10;99.90
47616;DHT22;69146;52.266;7.000;2024-02-14T01:40:14;7.10;99.90
47616;DHT22;69146;52.266;7.000;2024-02-14T01:42:59;7.20;99.90
47616;DHT22;69146;52.266;7.000;2024-02-14T01:45:45;7.20;99.90
47616;DHT22;69146;52.266;7.000;2024-02-14T01:48:29;7.20;99.90
47616;DHT22;69146;52.266;7.000;2024-02-14T01:51:13;7.20;99.90
47616;DHT22;69146;52.266;7.000;2024-02-14T01:54:04;7.20;99.90
47616;DHT22;69146;52.266;7.000;2024-02-14T01:56:48;7.20;99.90
47616;DHT22;69146;52.266;7.000;2024-02-14T01:59:33;7.30;99.90
47616;DHT22;69146;52.266;7.000;2024-02-14T02:02:19;7.30;99.90
47616;DHT22;69146;52.266;7.000;2024-02-14T02:05:04;7.30;99.90
47616;DHT22;69146;52.266;7.000;2024-02-14T02:07:48;7.30;99.90
47616;DHT22;69146;52.266;7.000;2024-02-14T02:10:35;7.30;99.90
47616;DHT22;69146;52.266;7.000;2024-02-14T02:13:19;7.30;99.90
47616;DHT22;69146;52.266;7.000;2024-02-14T02:16:05;7.30;99.90
47616;DHT22;69146;52.266;7.000;2024-02-14T02:18:50;7.30;99.90
47616;DHT22;69146;52.266;7.000;2024-02-14T02:21:34;7.30;99.90
47616;DHT22;69146;52.266;7.000;2024-02-14T02:24:20;7.30;99.90
47616;DHT22;69146;52.266;7.000;2024-02-14T02:27:05;7.30;99.90
47616;DHT22;69146;52.266;7.000;2024-02-14T02:29:49;7.30;99.90
47616;DHT22;69146;52.266;7.000;2024-02-14T02:32:33;7.40;99.90
47616;DHT22;69146;52.266;7.000;2024-02-14T02:35:18;7.40;99.90
47616;DHT22;69146;52.266;7.000;2024-02-14T02:38:06;7.40;99.90
47616;DHT22;69146;52.266;7.000;2024-02-14T02:40:52;7.40;99.90
47616;DHT22;69146;52.266;7.000;2024-02-14T02:43:37;7.40;99.90
47616;DHT22;69146;52.266;7.000;2024-02-14T02:46:21;7.50;99.90
47616;DHT22;69146;52.266;7.000;2024-02-14T02:49:07;7.50;99.90
47616;DHT22;69146;52.266;7.000;2024-02-14T02:51:51;7.50;99.90
47616;DHT22;69146;52.266;7.000;2024-02-14T02:54:36;7.50;99.90
47616;DHT22;69146;52.266;7.000;2024-02-14T02:57:22;7.50;99.90
47616;DHT22;69146;52.266;7.000;2024-02-14T03:00:07;7.50;99.90
47616;DHT22;69146;52.266;7.000;2024-02-14T03:02:57;7.50;99.90
47616;DHT22;69146;52.266;7.000;2024-02-14T03:05:41;7.60;99.90
47616;DHT22;69146;52.266;7.000;2024-02-14T03:08:26;7.60;99.90
47616;DHT22;69146;52.266;7.000;2024-02-14T03:11:10;7.60;99.90
47616;DHT22;69146;52.266;7.000;2024-02-14T03:13:56;7.60;99.90
47616;DHT22;69146;52.266;7.000;2024-02-14T03:16:40;7.60;99.90
47616;DHT22;69146;52.266;7.000;2024-02-14T03:19:25;7.60;99.90
47616;DHT22;69146;52.266;7.000;2024-02-14T03:22:11;7.60;99.90
47616;DHT22;69146;52.266;7.000;2024-02-14T03:24:55;7.70;99.90
47616;DHT22;69146;52.266;7.000;2024-02-14T03:27:41;7.80;99.90
47616;DHT22;69146;52.266;7.000;2024-02-14T03:30:27;7.70;99.90
47616;DHT22;69146;52.266;7.000;2024-02-14T03:33:13;7.80;99.90
47616;DHT22;69146;52.266;7.000;2024-02-14T03:35:58;7.80;99.90
47616;DHT22;69146;52.266;7.000;2024-02-14T03:38:43;7.90;99.90
47616;DHT22;69146;52.266;7.000;2024-02-14T03:41:27;7.90;99.90
47616;DHT22;69146;52.266;7.000;2024-02-14T03:44:12;7.90;99.90
47616;DHT22;69146;52.266;7.000;2024-02-14T03:46:58;7.90;99.90
47616;DHT22;69146;52.266;7.000;2024-02-14T03:49:44;7.90;99.90
47616;DHT22;69146;52.266;7.000;2024-02-14T03:52:28;8.00;99.90
47616;DHT22;69146;52.266;7.000;2024-02-14T03:55:14;8.00;99.90
47616;DHT22;69146;52.266;7.000;2024-02-14T03:58:00;8.00;99.90
47616;DHT22;69146;52.266;7.000;2024-02-14T04:00:45;8.10;99.90
47616;DHT22;69146;52.266;7.000;2024-02-14T04:03:34;8.10;99.90
47616;DHT22;69146;52.266;7.000;2024-02-14T04:06:18;8.10;99.90
47616;DHT22;69146;52.266;7.000;2024-02-14T04:09:02;8.10;99.90
47616;DHT22;69146;52.266;7.000;2024-02-14T04:11:47;8.10;99.90
47616;DHT22;69146;52.266;7.000;2024-02-14T04:14:33;8.20;99.90
47616;DHT22;69146;52.266;7.000;2024-02-14T04:17:17;8.20;99.90
47616;DHT22;69146;52.266;7.000;2024-02-14T04:20:03;8.20;99.90
47616;DHT22;69146;52.266;7.000;2024-02-14T04:22:48;8.20;99.90
47616;DHT22;69146;52.266;7.000;2024-02-14T04:25:32;8.20;99.90
47616;DHT22;69146;52.266;7.000;2024-02-14T04:28:17;8.20;99.90
47616;DHT22;69146;52.266;7.000;2024-02-14T04:31:02;8.20;99.90
47616;DHT22;69146;52.266;7.000;2024-02-14T04:33:46;8.30;99.90
47616;DHT22;69146;52.266;7.000;2024-02-14T04:36:37;8.30;99.90
47616;DHT22;69146;52.266;7.000;2024-02-14T04:39:21;8.30;99.90
47616;DHT22;69146;52.266;7.000;2024-02-14T04:42:06;8.30;99.90
47616;DHT22;69146;52.266;7.000;2024-02-14T04:44:50;8.30;99.90
47616;DHT22;69146;52.266;7.000;2024-02-14T04:47:34;8.30;99.90
47616;DHT22;69146;52.266;7.000;2024-02-14T04:50:19;8.30;99.90
47616;DHT22;69146;52.266;7.000;2024-02-14T04:53:05;8.30;99.90
47616;DHT22;69146;52.266;7.000;2024-02-14T04:55:49;8.40;99.90
47616;DHT22;69146;52.266;7.000;2024-02-14T04:58:34;8.40;99.90
47616;DHT22;69146;52.266;7.000;2024-02-14T05:01:20;8.40;99.90
47616;DHT22;69146;52.266;7.000;2024-02-14T05:04:05;8.40;99.90
47616;DHT22;69146;52.266;7.000;2024-02-14T05:06:49;8.40;99.90
47616;DHT22;69146;52.266;7.000;2024-02-14T05:09:35;8.40;99.90
47616;DHT22;69146;52.266;7.000;2024-02-14T05:12:19;8.50;99.90
47616;DHT22;69146;52.266;7.000;2024-02-14T05:15:04;8.40;99.90
47616;DHT22;69146;52.266;7.000;2024-02-14T05:17:49;8.50;99.90
47616;DHT22;69146;52.266;7.000;2024-02-14T05:20:34;8.40;99.90
47616;DHT22;69146;52.266;7.000;2024-02-14T05:23:18;8.50;99.90
47616;DHT22;69146;52.266;7.000;2024-02-14T05:26:04;8.50;99.90
47616;DHT22;69146;52.266;7.000;2024-02-14T05:28:48;8.50;99.90
47616;DHT22;69146;52.266;7.000;2024-02-14T05:31:42;8.50;99.90
47616;DHT22;69146;52.266;7.000;2024-02-14T05:34:27;8.50;99.90
47616;DHT22;69146;52.266;7.000;2024-02-14T05:37:11;8.50;99.90
47616;DHT22;69146;52.266;7.000;2024-02-14T05:39:55;8.50;99.90
47616;DHT22;69146;52.266;7.000;2024-02-14T05:42:41;8.60;99.90
47616;DHT22;69146;52.266;7.000;2024-02-14T05:45:25;8.60;99.90
47616;DHT22;69146;52.266;7.000;2024-02-14T05:48:11;8.60;99.90
47616;DHT22;69146;52.266;7.000;2024-02-14T05:50:56;8.60;99.90
47616;DHT22;69146;52.266;7.000;2024-02-14T05:53:40;8.60;99.90
47616;DHT22;69146;52.266;7.000;2024-02-14T05:56:25;8.60;99.90
47616;DHT22;69146;52.266;7.000;2024-02-14T05:59:10;8.70;99.90
47616;DHT22;69146;52.266;7.000;2024-02-14T06:01:55;8.70;99.90
47616;DHT22;69146;52.266;7.000;2024-02-14T06:04:39;8.70;99.90
47616;DHT22;69146;52.266;7.000;2024-02-14T06:07:24;8.70;99.90
47616;DHT22;69146;52.266;7.000;2024-02-14T06:10:09;8.70;99.90
47616;DHT22;69146;52.266;7.000;2024-02-14T06:12:53;8.70;99.90
47616;DHT22;69146;52.266;7.000;2024-02-14T06:15:39;8.70;99.90
47616;DHT22;69146;52.266;7.000;2024-02-14T06:18:24;8.70;99.90
47616;DHT22;69146;52.266;7.000;2024-02-14T06:21:08;8.80;99.90
47616;DHT22;69146;52.266;7.000;2024-02-14T06:23:53;8.80;99.90
47616;DHT22;69146;52.266;7.000;2024-02-14T06:26:37;8.80;99.90
47616;DHT22;69146;52.266;7.000;2024-02-14T06:29:22;8.80;99.90
47616;DHT22;69146;52.266;7.000;2024-02-14T06:32:08;8.80;99.90
47616;DHT22;69146;52.266;7.000;2024-02-14T06:34:52;8.80;99.90
47616;DHT22;69146;52.266;7.000;2024-02-14T06:37:37;8.80;99.90
47616;DHT22;69146;52.266;7.000;2024-02-14T06:40:22;8.80;99.90
47616;DHT22;69146;52.266;7.000;2024-02-14T06:43:06;8.80;99.90
47616;DHT22;69146;52.266;7.000;2024-02-14T06:45:51;8.90;99.90
47616;DHT22;69146;52.266;7.000;2024-02-14T06:48:37;8.90;99.90
47616;DHT22;69146;52.266;7.000;2024-02-14T06:51:21;8.90;99.90
47616;DHT22;69146;52.266;7.000;2024-02-14T06:54:06;8.90;99.90
47616;DHT22;69146;52.266;7.000;2024-02-14T06:56:51;8.90;99.90
47616;DHT22;69146;52.266;7.000;2024-02-14T06:59:35;8.90;99.90
47616;DHT22;69146;52.266;7.000;2024-02-14T07:02:21;8.90;99.90
47616;DHT22;69146;52.266;7.000;2024-02-14T07:05:08;8.90;99.90
47616;DHT22;69146;52.266;7.000;2024-02-14T07:07:56;8.90;99.90
47616;DHT22;69146;52.266;7.000;2024-02-14T07:10:41;8.90;99.90
47616;DHT22;69146;52.266;7.000;2024-02-14T07:13:25;8.90;99.90
47616;DHT22;69146;52.266;7.000;2024-02-14T07:16:10;9.00;99.90
47616;DHT22;69146;52.266;7.000;2024-02-14T07:18:54;9.00;99.90
47616;DHT22;69146;52.266;7.000;2024-02-14T07:21:41;9.00;99.90
47616;DHT22;69146;52.266;7.000;2024-02-14T07:24:25;9.00;99.90
47616;DHT22;69146;52.266;7.000;2024-02-14T07:27:10;9.00;99.90
47616;DHT22;69146;52.266;7.000;2024-02-14T07:29:55;9.00;99.90
47616;DHT22;69146;52.266;7.000;2024-02-14T07:32:39;9.00;99.90
47616;DHT22;69146;52.266;7.000;2024-02-14T07:35:24;9.10;99.90
47616;DHT22;69146;52.266;7.000;2024-02-14T07:38:11;9.10;99.90
47616;DHT22;69146;52.266;7.000;2024-02-14T07:40:55;9.10;99.90
47616;DHT22;69146;52.266;7.000;2024-02-14T07:43:39;9.20;99.90
47616;DHT22;69146;52.266;7.000;2024-02-14T07:46:24;9.10;99.90
47616;DHT22;69146;52.266;7.000;2024-02-14T07:49:10;9.10;99.90
47616;DHT22;69146;52.266;7.000;2024-02-14T07:51:54;9.20;99.90
47616;DHT22;69146;52.266;7.000;2024-02-14T07:54:40;9.20;99.90
47616;DHT22;69146;52.266;7.000;2024-02-14T07:57:25;9.20;99.90
47616;DHT22;69146;52.266;7.000;2024-02-14T08:00:10;9.20;99.90
47616;DHT22;69146;52.266;7.000;2024-02-14T08:02:54;9.20;99.90
47616;DHT22;69146;52.266;7.000;2024-02-14T08:05:39;9.20;99.90
47616;DHT22;69146;52.266;7.000;2024-02-14T08:08:25;9.20;99.90
47616;DHT22;69146;52.266;7.000;2024-02-14T08:11:13;9.20;99.90
47616;DHT22;69146;52.266;7.000;2024-02-14T08:13:57;9.30;99.90
47616;DHT22;69146;52.266;7.000;2024-02-14T08:16:42;9.30;99.90
47616;DHT22;69146;52.266;7.000;2024-02-14T08:19:26;9.30;99.90
47616;DHT22;69146;52.266;7.000;2024-02-14T08:22:11;9.30;99.90
47616;DHT22;69146;52.266;7.000;2024-02-14T08:24:56;9.30;99.90
47616;DHT22;69146;52.266;7.000;2024-02-14T08:27:42;9.30;99.90
47616;DHT22;69146;52.266;7.000;2024-02-14T08:30:26;9.30;99.90
47616;DHT22;69146;52.266;7.000;2024-02-14T08:33:11;9.30;99.90
47616;DHT22;69146;52.266;7.000;2024-02-14T08:35:56;9.40;99.90
47616;DHT22;69146;52.266;7.000;2024-02-14T08:38:41;9.40;99.90
47616;DHT22;69146;52.266;7.000;2024-02-14T08:41:25;9.40;99.90
47616;DHT22;69146;52.266;7.000;2024-02-14T08:44:11;9.40;99.90
47616;DHT22;69146;52.266;7.000;2024-02-14T08:46:55;9.40;99.90
47616;DHT22;69146;52.266;7.000;2024-02-14T08:49:40;9.40;99.90
47616;DHT22;69146;52.266;7.000;2024-02-14T08:52:24;9.40;99.90
47616;DHT22;69146;52.266;7.000;2024-02-14T08:55:09;9.40;99.90
47616;DHT22;69146;52.266;7.000;2024-02-14T08:58:01;9.50;99.90
47616;DHT22;69146;52.266;7.000;2024-02-14T09:00:47;9.50;99.90
47616;DHT22;69146;52.266;7.000;2024-02-14T09:03:32;9.50;99.90
47616;DHT22;69146;52.266;7.000;2024-02-14T09:06:17;9.50;99.90
47616;DHT22;69146;52.266;7.000;2024-02-14T09:09:04;9.50;99.90
47616;DHT22;69146;52.266;7.000;2024-02-14T09:11:48;9.50;99.90
47616;DHT22;69146;52.266;7.000;2024-02-14T09:14:33;9.50;99.90
47616;DHT22;69146;52.266;7.000;2024-02-14T09:17:18;9.60;99.90
47616;DHT22;69146;52.266;7.000;2024-02-14T09:20:03;9.60;99.90
47616;DHT22;69146;52.266;7.000;2024-02-14T09:22:48;9.60;99.90
47616;DHT22;69146;52.266;7.000;2024-02-14T09:25:32;9.60;99.90
47616;DHT22;69146;52.266;7.000;2024-02-14T09:28:17;9.60;99.90
47616;DHT22;69146;52.266;7.000;2024-02-14T09:31:01;9.60;99.90
47616;DHT22;69146;52.266;7.000;2024-02-14T09:33:49;9.60;99.90
47616;DHT22;69146;52.266;7.000;2024-02-14T09:36:33;9.60;99.90
47616;DHT22;69146;52.266;7.000;2024-02-14T09:39:18;9.70;99.90
47616;DHT22;69146;52.266;7.000;2024-02-14T09:42:03;9.70;99.90
47616;DHT22;69146;52.266;7.000;2024-02-14T09:44:51;9.80;99.90
47616;DHT22;69146;52.266;7.000;2024-02-14T09:47:37;9.80;99.90
47616;DHT22;69146;52.266;7.000;2024-02-14T09:50:22;9.80;99.90
47616;DHT22;69146;52.266;7.000;2024-02-14T09:53:08;9.80;99.90
47616;DHT22;69146;52.266;7.000;2024-02-14T09:55:54;9.80;99.90
47616;DHT22;69146;52.266;7.000;2024-02-14T09:58:39;9.80;99.90
47616;DHT22;69146;52.266;7.000;2024-02-14T10:01:24;9.90;99.90
47616;DHT22;69146;52.266;7.000;2024-02-14T10:04:09;9.90;99.90
47616;DHT22;69146;52.266;7.000;2024-02-14T10:06:56;9.90;99.90
47616;DHT22;69146;52.266;7.000;2024-02-14T10:09:40;9.90;99.90
47616;DHT22;69146;52.266;7.000;2024-02-14T10:12:25;9.90;99.90
47616;DHT22;69146;52.266;7.000;2024-02-14T10:15:09;9.90;99.90
47616;DHT22;69146;52.266;7.000;2024-02-14T10:17:54;9.90;99.90
47616;DHT22;69146;52.266;7.000;2024-02-14T10:20:39;10.00;99.90
47616;DHT22;69146;52.266;7.000;2024-02-14T10:23:28;10.00;99.90
47616;DHT22;69146;52.266;7.000;2024-02-14T10:26:14;9.90;99.90
47616;DHT22;69146;52.266;7.000;2024-02-14T10:28:58;9.90;99.90
47616;DHT22;69146;52.266;7.000;2024-02-14T10:31:43;9.90;99.90
47616;DHT22;69146;52.266;7.000;2024-02-14T10:34:27;10.00;99.90
47616;DHT22;69146;52.266;7.000;2024-02-14T10:37:13;9.90;99.90
47616;DHT22;69146;52.266;7.000;2024-02-14T10:39:59;10.00;99.90
47616;DHT22;69146;52.266;7.000;2024-02-14T10:42:46;9.90;99.90
47616;DHT22;69146;52.266;7.000;2024-02-14T10:45:30;10.00;99.90
47616;DHT22;69146;52.266;7.000;2024-02-14T10:48:14;10.00;99.90
47616;DHT22;69146;52.266;7.000;2024-02-14T10:50:59;10.10;99.90
47616;DHT22;69146;52.266;7.000;2024-02-14T10:53:46;10.10;99.90
47616;DHT22;69146;52.266;7.000;2024-02-14T10:56:32;10.10;99.90
47616;DHT22;69146;52.266;7.000;2024-02-14T10:59:18;10.20;99.90
47616;DHT22;69146;52.266;7.000;2024-02-14T11:02:04;10.20;99.90
47616;DHT22;69146;52.266;7.000;2024-02-14T11:04:48;10.20;99.90
47616;DHT22;69146;52.266;7.000;2024-02-14T11:07:43;10.10;99.90
47616;DHT22;69146;52.266;7.000;2024-02-14T11:10:27;10.20;99.90
47616;DHT22;69146;52.266;7.000;2024-02-14T11:13:13;10.20;99.90
47616;DHT22;69146;52.266;7.000;2024-02-14T11:16:01;10.10;99.90
47616;DHT22;69146;52.266;7.000;2024-02-14T11:18:45;10.10;99.90
47616;DHT22;69146;52.266;7.000;2024-02-14T11:21:29;10.10;99.90
47616;DHT22;69146;52.266;7.000;2024-02-14T11:24:15;10.10;99.90
47616;DHT22;69146;52.266;7.000;2024-02-14T11:27:01;10.20;99.90
47616;DHT22;69146;52.266;7.000;2024-02-14T11:29:52;10.30;99.90
47616;DHT22;69146;52.266;7.000;2024-02-14T11:32:37;10.20;99.90
47616;DHT22;69146;52.266;7.000;2024-02-14T11:35:26;10.20;99.90
47616;DHT22;69146;52.266;7.000;2024-02-14T11:38:11;10.30;99.90
47616;DHT22;69146;52.266;7.000;2024-02-14T11:40:58;10.30;99.90
47616;DHT22;69146;52.266;7.000;2024-02-14T11:43:50;10.20;99.90
47616;DHT22;69146;52.266;7.000;2024-02-14T11:46:36;10.20;99.90
47616;DHT22;69146;52.266;7.000;2024-02-14T11:49:21;10.30;99.90
47616;DHT22;69146;52.266;7.000;2024-02-14T11:52:09;10.30;99.90
47616;DHT22;69146;52.266;7.000;2024-02-14T11:54:53;10.30;99.90
47616;DHT22;69146;52.266;7.000;2024-02-14T11:57:38;10.30;99.90
47616;DHT22;69146;52.266;7.000;2024-02-14T12:00:22;10.30;99.90
47616;DHT22;69146;52.266;7.000;2024-02-14T12:03:10;10.30;99.90
47616;DHT22;69146;52.266;7.000;2024-02-14T12:05:55;10.40;99.90
47616;DHT22;69146;52.266;7.000;2024-02-14T12:08:43;10.40;99.90
47616;DHT22;69146;52.266;7.000;2024-02-14T12:11:27;10.40;99.90
47616;DHT22;69146;52.266;7.000;2024-02-14T12:14:13;10.40;99.90
47616;DHT22;69146;52.266;7.000;2024-02-14T12:16:59;10.40;99.90
47616;DHT22;69146;52.266;7.000;2024-02-14T12:19:48;10.50;99.90
47616;DHT22;69146;52.266;7.000;2024-02-14T12:22:33;10.50;99.90
47616;DHT22;69146;52.266;7.000;2024-02-14T12:25:18;10.50;99.90
47616;DHT22;69146;52.266;7.000;2024-02-14T12:28:02;10.50;99.90
47616;DHT22;69146;52.266;7.000;2024-02-14T12:30:47;10.50;99.90
47616;DHT22;69146;52.266;7.000;2024-02-14T12:33:40;10.50;99.90
47616;DHT22;69146;52.266;7.000;2024-02-14T12:36:26;10.50;99.90
47616;DHT22;69146;52.266;7.000;2024-02-14T12:39:10;10.60;99.90
47616;DHT22;69146;52.266;7.000;2024-02-14T12:41:56;10.60;99.90
47616;DHT22;69146;52.266;7.000;2024-02-14T12:44:41;10.60;99.90
47616;DHT22;69146;52.266;7.000;2024-02-14T12:47:25;10.50;99.90
47616;DHT22;69146;52.266;7.000;2024-02-14T12:50:15;10.50;99.90
47616;DHT22;69146;52.266;7.000;2024-02-14T12:53:01;10.50;99.90
47616;DHT22;69146;52.266;7.000;2024-02-14T12:55:46;10.50;99.90
47616;DHT22;69146;52.266;7.000;2024-02-14T12:58:31;10.60;99.90
47616;DHT22;69146;52.266;7.000;2024-02-14T13:01:15;10.60;99.90
47616;DHT22;69146;52.266;7.000;2024-02-14T13:04:02;10.60;99.90
47616;DHT22;69146;52.266;7.000;2024-02-14T13:06:49;10.60;99.90
47616;DHT22;69146;52.266;7.000;2024-02-14T13:09:35;10.70;99.90
47616;DHT22;69146;52.266;7.000;2024-02-14T13:12:21;10.70;99.90
47616;DHT22;69146;52.266;7.000;2024-02-14T13:15:06;10.70;99.90
47616;DHT22;69146;52.266;7.000;2024-02-14T13:17:51;10.70;99.90
47616;DHT22;69146;52.266;7.000;2024-02-14T13:20:35;10.70;99.90
47616;DHT22;69146;52.266;7.000;2024-02-14T13:23:19;10.70;99.90
47616;DHT22;69146;52.266;7.000;2024-02-14T13:26:05;10.80;99.90
47616;DHT22;69146;52.266;7.000;2024-02-14T13:28:52;10.70;99.90
47616;DHT22;69146;52.266;7.000;2024-02-14T13:31:36;10.80;99.90
47616;DHT22;69146;52.266;7.000;2024-02-14T13:34:20;10.80;99.90
47616;DHT22;69146;52.266;7.000;2024-02-14T13:37:05;10.80;99.90
47616;DHT22;69146;52.266;7.000;2024-02-14T13:39:49;10.90;99.90
47616;DHT22;69146;52.266;7.000;2024-02-14T13:42:35;10.90;99.90
47616;DHT22;69146;52.266;7.000;2024-02-14T13:45:21;11.00;99.90
47616;DHT22;69146;52.266;7.000;2024-02-14T13:48:07;11.00;99.90
47616;DHT22;69146;52.266;7.000;2024-02-14T13:50:53;11.00;99.90
47616;DHT22;69146;52.266;7.000;2024-02-14T13:53:37;11.00;99.90
47616;DHT22;69146;52.266;7.000;2024-02-14T13:56:22;11.00;99.90
47616;DHT22;69146;52.266;7.000;2024-02-14T13:59:08;11.10;99.90
47616;DHT22;69146;52.266;7.000;2024-02-14T14:01:52;11.10;99.90
47616;DHT22;69146;52.266;7.000;2024-02-14T14:04:37;11.10;99.90
47616;DHT22;69146;52.266;7.000;2024-02-14T14:07:22;11.20;99.90
47616;DHT22;69146;52.266;7.000;2024-02-14T14:10:08;11.10;99.90
47616;DHT22;69146;52.266;7.000;2024-02-14T14:12:53;11.10;99.90
47616;DHT22;69146;52.266;7.000;2024-02-14T14:15:39;11.10;99.90
47616;DHT22;69146;52.266;7.000;2024-02-14T14:18:23;11.00;99.90
47616;DHT22;69146;52.266;7.000;2024-02-14T14:21:08;11.00;99.90
47616;DHT22;69146;52.266;7.000;2024-02-14T14:23:52;11.10;99.90
47616;DHT22;69146;52.266;7.000;2024-02-14T14:26:36;11.10;99.90
47616;DHT22;69146;52.266;7.000;2024-02-14T14:29:22;11.10;99.90
47616;DHT22;69146;52.266;7.000;2024-02-14T14:32:08;11.10;99.90
47616;DHT22;69146;52.266;7.000;2024-02-14T14:34:53;11.10;99.90
47616;DHT22;69146;52.266;7.000;2024-02-14T14:37:38;11.10;99.90
47616;DHT22;69146;52.266;7.000;2024-02-14T14:40:22;11.10;99.90
47616;DHT22;69146;52.266;7.000;2024-02-14T14:43:09;11.10;99.90
47616;DHT22;69146;52.266;7.000;2024-02-14T14:45:54;11.10;99.90
47616;DHT22;69146;52.266;7.000;2024-02-14T14:48:39;11.10;99.90
47616;DHT22;69146;52.266;7.000;2024-02-14T14:51:24;11.10;99.90
47616;DHT22;69146;52.266;7.000;2024-02-14T14:54:08;11.10;99.90
47616;DHT22;69146;52.266;7.000;2024-02-14T14:56:53;11.10;99.90
47616;DHT22;69146;52.266;7.000;2024-02-14T14:59:37;11.10;99.90
47616;DHT22;69146;52.266;7.000;2024-02-14T15:02:22;11.10;99.90
47616;DHT22;69146;52.266;7.000;2024-02-14T15:05:08;11.10;99.90
47616;DHT22;69146;52.266;7.000;2024-02-14T15:07:52;11.10;99.90
47616;DHT22;69146;52.266;7.000;2024-02-14T15:10:37;11.10;99.90
47616;DHT22;69146;52.266;7.000;2024-02-14T15:13:22;11.10;99.90
47616;DHT22;69146;52.266;7.000;2024-02-14T15:16:07;11.10;99.90
47616;DHT22;69146;52.266;7.000;2024-02-14T15:18:52;11.10;99.90
47616;DHT22;69146;52.266;7.000;2024-02-14T15:21:39;11.10;99.90
47616;DHT22;69146;52.266;7.000;2024-02-14T15:24:23;11.10;99.90
47616;DHT22;69146;52.266;7.000;2024-02-14T15:27:07;11.10;99.90
47616;DHT22;69146;52.266;7.000;2024-02-14T15:29:55;11.10;99.90
47616;DHT22;69146;52.266;7.000;2024-02-14T15:32:58;11.10;99.90
47616;DHT22;69146;52.266;7.000;2024-02-14T15:36:02;11.10;99.90
47616;DHT22;69146;52.266;7.000;2024-02-14T15:38:47;11.00;99.90
47616;DHT22;69146;52.266;7.000;2024-02-14T15:41:32;11.00;99.90
47616;DHT22;69146;52.266;7.000;2024-02-14T15:44:17;11.00;99.90
47616;DHT22;69146;52.266;7.000;2024-02-14T15:47:02;10.90;99.90
47616;DHT22;69146;52.266;7.000;2024-02-14T15:49:46;11.00;99.90
47616;DHT22;69146;52.266;7.000;2024-02-14T15:52:30;11.00;99.90
47616;DHT22;69146;52.266;7.000;2024-02-14T15:55:17;11.00;99.90
47616;DHT22;69146;52.266;7.000;2024-02-14T15:58:01;11.00;99.90
47616;DHT22;69146;52.266;7.000;2024-02-14T16:00:46;11.00;99.90
47616;DHT22;69146;52.266;7.000;2024-02-14T16:03:30;11.00;99.90
47616;DHT22;69146;52.266;7.000;2024-02-14T16:06:15;11.00;99.90
47616;DHT22;69146;52.266;7.000;2024-02-14T16:08:59;11.00;99.90
47616;DHT22;69146;52.266;7.000;2024-02-14T16:11:45;11.00;99.90
47616;DHT22;69146;52.266;7.000;2024-02-14T16:14:30;11.00;99.90
47616;DHT22;69146;52.266;7.000;2024-02-14T16:17:16;11.00;99.90
47616;DHT22;69146;52.266;7.000;2024-02-14T16:20:00;11.00;99.90
47616;DHT22;69146;52.266;7.000;2024-02-14T16:22:45;11.00;99.90
47616;DHT22;69146;52.266;7.000;2024-02-14T16:25:31;11.00;99.90
47616;DHT22;69146;52.266;7.000;2024-02-14T16:28:18;11.00;99.90
47616;DHT22;69146;52.266;7.000;2024-02-14T16:31:02;11.00;99.90
47616;DHT22;69146;52.266;7.000;2024-02-14T16:33:47;10.90;99.90
47616;DHT22;69146;52.266;7.000;2024-02-14T16:36:31;11.00;99.90
47616;DHT22;69146;52.266;7.000;2024-02-14T16:39:15;11.00;99.90
47616;DHT22;69146;52.266;7.000;2024-02-14T16:42:00;10.90;99.90
47616;DHT22;69146;52.266;7.000;2024-02-14T16:44:45;11.00;99.90
47616;DHT22;69146;52.266;7.000;2024-02-14T16:47:30;11.00;99.90
47616;DHT22;69146;52.266;7.000;2024-02-14T16:50:14;11.00;99.90
47616;DHT22;69146;52.266;7.000;2024-02-14T16:52:58;11.00;99.90
47616;DHT22;69146;52.266;7.000;2024-02-14T16:55:43;11.10;99.90
47616;DHT22;69146;52.266;7.000;2024-02-14T16:58:27;11.00;99.90
47616;DHT22;69146;52.266;7.000;2024-02-14T17:01:13;11.10;99.90
47616;DHT22;69146;52.266;7.000;2024-02-14T17:03:58;11.10;99.90
47616;DHT22;69146;52.266;7.000;2024-02-14T17:06:42;11.10;99.90
47616;DHT22;69146;52.266;7.000;2024-02-14T17:09:27;11.10;99.90
47616;DHT22;69146;52.266;7.000;2024-02-14T17:12:11;11.10;99.90
47616;DHT22;69146;52.266;7.000;2024-02-14T17:14:56;11.10;99.90
47616;DHT22;69146;52.266;7.000;2024-02-14T17:17:41;11.10;99.90
47616;DHT22;69146;52.266;7.000;2024-02-14T17:20:26;11.10;99.90
47616;DHT22;69146;52.266;7.000;2024-02-14T17:23:10;11.10;99.90
47616;DHT22;69146;52.266;7.000;2024-02-14T17:25:55;11.20;99.90
47616;DHT22;69146;52.266;7.000;2024-02-14T17:28:40;11.10;99.90
47616;DHT22;69146;52.266;7.000;2024-02-14T17:31:25;11.20;99.90
47616;DHT22;69146;52.266;7.000;2024-02-14T17:34:11;11.10;99.90